Rosaria Lauro — IXXO — position and weather

sailwx.info

Track history (hours):
 
Tides and Currents Weather Stations Pressure Air Temp Water Temp Dewpoint Dewpoint Depression Visibility Wind Speed Wind Dir Waves Ship Positions

Rosaria Lauro

Last reported at 2017-Aug-20 07:58 UTC. Time now 2017-Aug-20 09:46 UTC.
Position N 40°47' E 014°10'.

Length 42 m; draft 1.2 m.

Type: Passenger vessel. MMSI: 247055900.

Date/timePositionNaut miles runAvg speedWind from/ knotsBaromVisibWave heightAir tempDewpointWater temp
2017-Aug-20 07:58N 40°47' E 014°10'7 0.6
2017-Aug-19 18:59N 40°44' E 014°01'1225.9
2017-Aug-19 18:30N 40°49' E 014°16'1 2.7
2017-Aug-19 18:00N 40°50' E 014°15'0 0.1
2017-Aug-19 15:31N 40°50' E 014°16'010.5
2017-Aug-19 15:28N 40°50' E 014°16'15 7.1
2017-Aug-19 13:25N 40°44' E 013°58'921.8
2017-Aug-19 13:01N 40°47' E 014°10'6 5.7
2017-Aug-19 11:54N 40°50' E 014°17'1224.8
2017-Aug-19 11:25N 40°45' E 014°02'2 1.1
2017-Aug-19 09:46N 40°44' E 014°00'924.0
2017-Aug-19 09:24N 40°47' E 014°11'5 5.4
2017-Aug-19 08:32N 40°50' E 014°16'0 9.3
2017-Aug-19 08:30N 40°50' E 014°16'5 1.4
2017-Aug-19 04:59N 40°47' E 014°11'4 0.4
2017-Aug-18 18:47N 40°46' E 014°06'825.7
2017-Aug-18 18:28N 40°49' E 014°16'1 2.6
2017-Aug-18 18:00N 40°50' E 014°15'917.1
2017-Aug-18 17:30N 40°46' E 014°05'5 3.6
2017-Aug-18 16:03N 40°46' E 013°59'125.3
2017-Aug-18 16:00N 40°46' E 014°00'1224.5
2017-Aug-18 15:30N 40°49' E 014°16'1 1.9
2017-Aug-18 14:46N 40°50' E 014°15'1 2.4
2017-Aug-18 14:30N 40°50' E 014°16'0 0.2
2017-Aug-18 13:30N 40°51' E 014°16'0 0.0
2017-Aug-18 12:59N 40°51' E 014°16'0 0.0
2017-Aug-18 12:30N 40°51' E 014°16'0 0.0
2017-Aug-18 12:00N 40°51' E 014°16'0 0.0
2017-Aug-18 11:30N 40°51' E 014°16'1 1.2
2017-Aug-18 10:54N 40°50' E 014°15'0 0.0
2017-Aug-18 10:30N 40°50' E 014°15'5 9.2
2017-Aug-18 10:00N 40°47' E 014°11'1525.2
2017-Aug-18 09:25N 40°46' E 013°52'1 1.1
2017-Aug-18 08:44N 40°45' E 013°52'622.7
2017-Aug-18 08:29N 40°46' E 013°59'1225.0
2017-Aug-18 08:00N 40°48' E 014°14'2 4.2
2017-Aug-18 07:30N 40°50' E 014°15'816.7
2017-Aug-18 07:00N 40°46' E 014°06'7 0.6
2017-Aug-17 19:20N 40°45' E 013°56'516.0
2017-Aug-17 19:00N 40°46' E 014°03'1121.7
2017-Aug-17 18:31N 40°50' E 014°16'0 0.3
2017-Aug-17 18:01N 40°50' E 014°16'1019.4
2017-Aug-17 17:29N 40°46' E 014°03'3 3.3
2017-Aug-17 16:35N 40°46' E 013°60'726.1
2017-Aug-17 16:20N 40°47' E 014°08'721.3
2017-Aug-17 16:01N 40°50' E 014°16'1 1.2
2017-Aug-17 15:31N 40°50' E 014°15'0 0.9
2017-Aug-17 15:00N 40°50' E 014°16'0 0.2
2017-Aug-17 13:07N 40°51' E 014°16'1 0.4
2017-Aug-17 11:13N 40°50' E 014°15'2 7.6
2017-Aug-17 11:01N 40°49' E 014°16'1223.3
2017-Aug-17 10:31N 40°46' E 014°01'2 0.9
2017-Aug-17 08:36N 40°46' E 013°59'722.7
2017-Aug-17 08:17N 40°47' E 014°08'7 8.3
2017-Aug-17 07:26N 40°50' E 014°17'9 0.7
2017-Aug-16 18:48N 40°46' E 014°06'2 0.9
2017-Aug-16 16:02N 40°46' E 014°03'224.9
2017-Aug-16 15:57N 40°46' E 014°05'812.4
2017-Aug-16 15:17N 40°50' E 014°15'411.8
2017-Aug-16 14:57N 40°47' E 014°12'12 4.1
2017-Aug-16 12:00N 40°45' E 013°57'917.2
2017-Aug-16 11:30N 40°47' E 014°08'7 8.2
2017-Aug-16 10:36N 40°50' E 014°16'113.5
2017-Aug-16 10:30N 40°49' E 014°16'1225.0
2017-Aug-16 10:01N 40°46' E 013°60'6 9.1
2017-Aug-16 09:18N 40°45' E 013°52'4 9.5
2017-Aug-16 08:53N 40°45' E 013°57'922.2
2017-Aug-16 08:29N 40°47' E 014°08'612.2
2017-Aug-16 07:58N 40°50' E 014°15'0 0.9
2017-Aug-16 07:30N 40°50' E 014°16'13 1.0
2017-Aug-15 19:02N 40°44' E 014°01'427.4
2017-Aug-15 18:54N 40°45' E 014°05'911.5
2017-Aug-15 18:05N 40°45' E 014°18'227.5
2017-Aug-15 18:00N 40°43' E 014°18'1019.7
2017-Aug-15 17:30N 40°35' E 014°25'4 3.9
2017-Aug-15 16:31N 40°37' E 014°29'022.4
2017-Aug-15 16:30N 40°37' E 014°29'612.4
2017-Aug-15 16:00N 40°38' E 014°21'15 4.6
2017-Aug-15 12:45N 40°48' E 014°06'624.1
2017-Aug-15 12:31N 40°48' E 014°14'2 3.0
2017-Aug-15 12:00N 40°49' E 014°16'10 4.0
2017-Aug-15 09:25N 40°45' E 014°03'1210.8
2017-Aug-15 08:21N 40°50' E 014°17'5 0.3
2017-Aug-14 15:56N 40°47' E 014°11'6 1.4
2017-Aug-14 11:42N 40°46' E 014°03'624.3
2017-Aug-14 11:27N 40°47' E 014°11'6 1.5
2017-Aug-14 07:40N 40°45' E 014°04'425.9
2017-Aug-14 07:30N 40°47' E 014°09'2 0.1
2017-Aug-13 18:29N 40°47' E 014°11'0 0.1
2017-Aug-13 16:01N 40°47' E 014°11'023.4
2017-Aug-13 16:00N 40°47' E 014°12'1 0.5
2017-Aug-13 13:02N 40°47' E 014°10'122.2
2017-Aug-13 12:59N 40°47' E 014°11'3 0.9
2017-Aug-13 09:42N 40°46' E 014°08'4 0.2
2017-Aug-12 11:56N 40°47' E 014°12'1125.2
2017-Aug-12 11:31N 40°45' E 013°58'5 0.3
2017-Aug-11 17:57N 40°44' E 013°52'2 4.7
2017-Aug-11 17:30N 40°45' E 013°54'12 0.5
2017-Aug-10 18:41N 40°47' E 014°10'6 8.0
2017-Aug-10 17:57N 40°50' E 014°17'12 6.2
2017-Aug-10 16:01N 40°40' E 014°08'023.3
2017-Aug-10 16:00N 40°40' E 014°09'9 1.3
2017-Aug-10 09:07N 40°34' E 014°18'5 6.8
2017-Aug-10 08:27N 40°37' E 014°13'  
Track history (hours):
 
Tides and Currents Weather Stations Pressure Air Temp Water Temp Dewpoint Dewpoint Depression Visibility Wind Speed Wind Dir Waves Ship Positions

Rosaria Lauro

Last reported at 2017-Aug-20 07:58 UTC. Time now 2017-Aug-20 09:46 UTC.
Position N 40°47' E 014°10'.

Length 42 m; draft 1.2 m.

Type: Passenger vessel. MMSI: 247055900.

Date/timePositionNaut miles runAvg speedWind from/ knotsBaromVisibWave heightAir tempDewpointWater temp
2017-Aug-20 07:58N 40°47' E 014°10'7 0.6
2017-Aug-19 18:59N 40°44' E 014°01'1225.9
2017-Aug-19 18:30N 40°49' E 014°16'1 2.7
2017-Aug-19 18:00N 40°50' E 014°15'0 0.1
2017-Aug-19 15:31N 40°50' E 014°16'010.5
2017-Aug-19 15:28N 40°50' E 014°16'15 7.1
2017-Aug-19 13:25N 40°44' E 013°58'921.8
2017-Aug-19 13:01N 40°47' E 014°10'6 5.7
2017-Aug-19 11:54N 40°50' E 014°17'1224.8
2017-Aug-19 11:25N 40°45' E 014°02'2 1.1
2017-Aug-19 09:46N 40°44' E 014°00'924.0
2017-Aug-19 09:24N 40°47' E 014°11'5 5.4
2017-Aug-19 08:32N 40°50' E 014°16'0 9.3
2017-Aug-19 08:30N 40°50' E 014°16'5 1.4
2017-Aug-19 04:59N 40°47' E 014°11'4 0.4
2017-Aug-18 18:47N 40°46' E 014°06'825.7
2017-Aug-18 18:28N 40°49' E 014°16'1 2.6
2017-Aug-18 18:00N 40°50' E 014°15'917.1
2017-Aug-18 17:30N 40°46' E 014°05'5 3.6
2017-Aug-18 16:03N 40°46' E 013°59'125.3
2017-Aug-18 16:00N 40°46' E 014°00'1224.5
2017-Aug-18 15:30N 40°49' E 014°16'1 1.9
2017-Aug-18 14:46N 40°50' E 014°15'1 2.4
2017-Aug-18 14:30N 40°50' E 014°16'0 0.2
2017-Aug-18 13:30N 40°51' E 014°16'0 0.0
2017-Aug-18 12:59N 40°51' E 014°16'0 0.0
2017-Aug-18 12:30N 40°51' E 014°16'0 0.0
2017-Aug-18 12:00N 40°51' E 014°16'0 0.0
2017-Aug-18 11:30N 40°51' E 014°16'1 1.2
2017-Aug-18 10:54N 40°50' E 014°15'0 0.0
2017-Aug-18 10:30N 40°50' E 014°15'5 9.2
2017-Aug-18 10:00N 40°47' E 014°11'1525.2
2017-Aug-18 09:25N 40°46' E 013°52'1 1.1
2017-Aug-18 08:44N 40°45' E 013°52'622.7
2017-Aug-18 08:29N 40°46' E 013°59'1225.0
2017-Aug-18 08:00N 40°48' E 014°14'2 4.2
2017-Aug-18 07:30N 40°50' E 014°15'816.7
2017-Aug-18 07:00N 40°46' E 014°06'7 0.6
2017-Aug-17 19:20N 40°45' E 013°56'516.0
2017-Aug-17 19:00N 40°46' E 014°03'1121.7
2017-Aug-17 18:31N 40°50' E 014°16'0 0.3
2017-Aug-17 18:01N 40°50' E 014°16'1019.4
2017-Aug-17 17:29N 40°46' E 014°03'3 3.3
2017-Aug-17 16:35N 40°46' E 013°60'726.1
2017-Aug-17 16:20N 40°47' E 014°08'721.3
2017-Aug-17 16:01N 40°50' E 014°16'1 1.2
2017-Aug-17 15:31N 40°50' E 014°15'0 0.9
2017-Aug-17 15:00N 40°50' E 014°16'0 0.2
2017-Aug-17 13:07N 40°51' E 014°16'1 0.4
2017-Aug-17 11:13N 40°50' E 014°15'2 7.6
2017-Aug-17 11:01N 40°49' E 014°16'1223.3
2017-Aug-17 10:31N 40°46' E 014°01'2 0.9
2017-Aug-17 08:36N 40°46' E 013°59'722.7
2017-Aug-17 08:17N 40°47' E 014°08'7 8.3
2017-Aug-17 07:26N 40°50' E 014°17'9 0.7
2017-Aug-16 18:48N 40°46' E 014°06'2 0.9
2017-Aug-16 16:02N 40°46' E 014°03'224.9
2017-Aug-16 15:57N 40°46' E 014°05'812.4
2017-Aug-16 15:17N 40°50' E 014°15'411.8
2017-Aug-16 14:57N 40°47' E 014°12'12 4.1
2017-Aug-16 12:00N 40°45' E 013°57'917.2
2017-Aug-16 11:30N 40°47' E 014°08'7 8.2
2017-Aug-16 10:36N 40°50' E 014°16'113.5
2017-Aug-16 10:30N 40°49' E 014°16'1225.0
2017-Aug-16 10:01N 40°46' E 013°60'6 9.1
2017-Aug-16 09:18N 40°45' E 013°52'4 9.5
2017-Aug-16 08:53N 40°45' E 013°57'922.2
2017-Aug-16 08:29N 40°47' E 014°08'612.2
2017-Aug-16 07:58N 40°50' E 014°15'0 0.9
2017-Aug-16 07:30N 40°50' E 014°16'13 1.0
2017-Aug-15 19:02N 40°44' E 014°01'427.4
2017-Aug-15 18:54N 40°45' E 014°05'911.5
2017-Aug-15 18:05N 40°45' E 014°18'227.5
2017-Aug-15 18:00N 40°43' E 014°18'1019.7
2017-Aug-15 17:30N 40°35' E 014°25'4 3.9
2017-Aug-15 16:31N 40°37' E 014°29'022.4
2017-Aug-15 16:30N 40°37' E 014°29'612.4
2017-Aug-15 16:00N 40°38' E 014°21'15 4.6
2017-Aug-15 12:45N 40°48' E 014°06'624.1
2017-Aug-15 12:31N 40°48' E 014°14'2 3.0
2017-Aug-15 12:00N 40°49' E 014°16'10 4.0
2017-Aug-15 09:25N 40°45' E 014°03'1210.8
2017-Aug-15 08:21N 40°50' E 014°17'5 0.3
2017-Aug-14 15:56N 40°47' E 014°11'6 1.4
2017-Aug-14 11:42N 40°46' E 014°03'624.3
2017-Aug-14 11:27N 40°47' E 014°11'6 1.5
2017-Aug-14 07:40N 40°45' E 014°04'425.9
2017-Aug-14 07:30N 40°47' E 014°09'2 0.1
2017-Aug-13 18:29N 40°47' E 014°11'0 0.1
2017-Aug-13 16:01N 40°47' E 014°11'023.4
2017-Aug-13 16:00N 40°47' E 014°12'1 0.5
2017-Aug-13 13:02N 40°47' E 014°10'122.2
2017-Aug-13 12:59N 40°47' E 014°11'3 0.9
2017-Aug-13 09:42N 40°46' E 014°08'4 0.2
2017-Aug-12 11:56N 40°47' E 014°12'1125.2
2017-Aug-12 11:31N 40°45' E 013°58'5 0.3
2017-Aug-11 17:57N 40°44' E 013°52'2 4.7
2017-Aug-11 17:30N 40°45' E 013°54'12 0.5
2017-Aug-10 18:41N 40°47' E 014°10'6 8.0
2017-Aug-10 17:57N 40°50' E 014°17'12 6.2
2017-Aug-10 16:01N 40°40' E 014°08'023.3
2017-Aug-10 16:00N 40°40' E 014°09'9 1.3
2017-Aug-10 09:07N 40°34' E 014°18'5 6.8
2017-Aug-10 08:27N 40°37' E 014°13'  

Dump ship's entire track history